ORD weather

Chicago O'Hare International Airport
Chicago, Illinois, United States

Public forecast

Using degrees Fahrenheit for public forecast. Weather courtesy of forecast.io.

METAR (pilot weather report)

Retrieved 2017/01/20 04:51 UTC (48 minutes ago):

KORD 200451Z 05007KT 2SM -RA BR OVC041 03/03 A2972

TAF (pilot weather forecast)

Forecast is more than 6 hours old.

Retrieved 2017/01/19 18:28 UTC (11 hours ago):

TAF KORD 191726Z 1918/2024 14007KT 3SM BR SCT007 OVC150 TEMPO 1918/1922 BKN007 FM192300 11008KT 4SM -SHRA BR BKN008 OVC025 FM200100 08007KT 2SM -RA BR OVC007 FM200300 08007KT 1 1/2SM -SHRA BR VCTS OVC004CB FM200800 08005KT 1SM -DZ BR OVC003 FM201800 10006KT 4SM BR OVC007